Harmon, Arkansas
Current Conditions -  °F | °C
As of 7:09 PM on Sunday 23 Nov 2014 (Local Time) from KFYV Reporting Station
Thunderstorm Thunderstorm  
Wind Chill: 57°   Ceiling: 7500
Heat Index: 57°   Visibility: 9mi
Dew Point: 53°   Wind: 10mph
Humidity: 87%   Direction: 250°WSW
Pressure: 29.35"   Gusts: 26mph
Location:  35.9902°N, 94.083°W
Report Text: KFYV 240109Z 25009G23KT 9SM -TSRA FEW034 SCT048 BKN075 14/12 A2935 RMK AO2 LTG DSNT N RAB0057 TSB03 P0002 T01390117
Loading
Personal Weather Stations






























Interactive Weather Map New forecast layout! Learn more

10-Day Weather Forecast

Advertisements
Track Severe Weather on mobile